Time;durP1;ratioP1;P1;durP2;ratioP2;P2;SDS_P1;SDS_P2;PMS_P1;PMS_P2;Temp;Humidity;BMP_temperature;BMP_pressure;BME280_temperature;BME280_humidity;BME280_pressure;Samples;Min_cycle;Max_cycle;Signal;HPM_P1;HPM_P2
2022/04/08 00:02:09;;;;;;;3.77;0.90;;;;;;;7.78;67.80;97870.73;1739290;81;21058;-70
2022/04/08 00:04:36;;;;;;;1.83;0.60;;;;;;;7.77;67.66;97865.99;1741869;81;21099;-70
2022/04/08 00:07:04;;;;;;;4.47;0.90;;;;;;;7.76;67.43;97865.64;1739384;81;20986;-71
2022/04/08 00:09:31;;;;;;;3.93;0.90;;;;;;;7.76;67.26;97865.64;1744161;81;21056;-69
2022/04/08 00:11:58;;;;;;;3.57;0.80;;;;;;;7.75;67.04;97878.29;1743542;81;21013;-69
2022/04/08 00:14:25;;;;;;;4.13;1.50;;;;;;;7.78;66.77;97872.04;1742669;82;21495;-69
2022/04/08 00:16:52;;;;;;;4.07;0.90;;;;;;;7.77;66.44;97864.69;1737597;81;21175;-69
2022/04/08 00:19:19;;;;;;;4.93;1.17;;;;;;;7.78;66.40;97874.17;1742814;81;20982;-70
2022/04/08 00:21:51;;;;;;;2.60;0.60;;;;;;;7.77;66.48;97875.59;1743391;81;21013;-69
2022/04/08 00:24:17;;;;;;;4.27;0.70;;;;;;;7.72;66.36;97874.58;1738751;81;20977;-72
2022/04/08 00:26:46;;;;;;;3.80;0.87;;;;;;;7.70;66.10;97879.05;1738097;81;21056;-69
2022/04/08 00:29:15;;;;;;;3.30;0.80;;;;;;;7.68;66.15;97878.81;1740940;81;21941;-69
2022/04/08 00:31:44;;;;;;;3.40;0.82;;;;;;;7.64;66.10;97874.25;1738132;81;21037;-69
2022/04/08 00:34:11;;;;;;;3.50;0.60;;;;;;;7.60;66.17;97867.11;1738666;81;21486;-69
2022/04/08 00:36:39;;;;;;;4.83;0.90;;;;;;;7.57;66.22;97891.24;1747290;81;21108;-70
2022/04/08 00:39:06;;;;;;;2.07;0.80;;;;;;;7.55;66.06;97878.30;1741742;81;21486;-70
2022/04/08 00:41:33;;;;;;;4.47;0.90;;;;;;;7.52;65.92;97887.62;1739820;81;21921;-69
2022/04/08 00:44:00;;;;;;;2.77;0.90;;;;;;;7.51;65.55;97894.22;1748400;80;21001;-69
2022/04/08 00:46:27;;;;;;;5.17;0.77;;;;;;;7.51;65.87;97875.97;1740664;82;21055;-69
2022/04/08 00:48:54;;;;;;;4.00;0.67;;;;;;;7.50;65.69;97886.05;1740085;81;21547;-69
2022/04/08 00:51:23;;;;;;;2.73;0.87;;;;;;;7.49;65.62;97903.45;1739914;81;21033;-69
2022/04/08 00:53:51;;;;;;;3.63;0.53;;;;;;;7.50;65.69;97882.97;1739499;81;21082;-70
2022/04/08 00:56:21;;;;;;;4.10;0.90;;;;;;;7.49;65.73;97893.51;1741218;81;20970;-69
2022/04/08 00:58:48;;;;;;;4.80;0.80;;;;;;;7.46;65.58;97884.59;1742731;82;21017;-69
2022/04/08 01:01:15;;;;;;;3.07;0.67;;;;;;;7.45;65.37;97884.20;1744953;80;21009;-69
2022/04/08 01:03:43;;;;;;;2.50;0.53;;;;;;;7.42;65.47;97885.23;1742553;81;21266;-69
2022/04/08 01:06:10;;;;;;;3.03;0.80;;;;;;;7.40;65.37;97900.16;1744002;81;21125;-70
2022/04/08 01:08:38;;;;;;;3.83;1.00;;;;;;;7.38;65.38;97896.80;1745421;80;21023;-70
2022/04/08 01:11:05;;;;;;;1.27;0.60;;;;;;;7.38;65.26;97908.52;1745226;81;21028;-69
2022/04/08 01:13:33;;;;;;;2.67;0.40;;;;;;;7.38;65.35;97907.22;1738747;81;21025;-70
2022/04/08 01:16:00;;;;;;;3.53;0.70;;;;;;;7.36;65.24;97911.69;1719715;82;21028;-70
2022/04/08 01:18:27;;;;;;;4.40;0.77;;;;;;;7.36;64.99;97912.52;1741947;81;21077;-70
2022/04/08 01:20:54;;;;;;;1.73;0.57;;;;;;;7.37;65.05;97914.21;1740589;81;21613;-69
2022/04/08 01:23:21;;;;;;;3.33;0.90;;;;;;;7.36;64.75;97919.03;1738424;80;21006;-69
2022/04/08 01:25:48;;;;;;;3.23;0.90;;;;;;;7.37;64.28;97917.26;1741560;81;21004;-70
2022/04/08 01:28:15;;;;;;;5.17;0.70;;;;;;;7.39;63.96;97934.94;1737545;81;21006;-69
2022/04/08 01:30:42;;;;;;;3.63;0.97;;;;;;;7.42;64.24;97919.58;1740481;80;21103;-70
2022/04/08 01:33:09;;;;;;;5.10;0.70;;;;;;;7.42;64.11;97944.34;1742314;80;21530;-69
2022/04/08 01:35:36;;;;;;;2.63;0.70;;;;;;;7.40;64.14;97914.48;1743620;81;20992;-69
2022/04/08 01:38:04;;;;;;;3.73;0.70;;;;;;;7.38;64.09;97928.07;1741795;81;21004;-69
2022/04/08 01:40:31;;;;;;;3.00;0.70;;;;;;;7.33;64.04;97921.84;1746138;80;21056;-69
2022/04/08 01:42:58;;;;;;;4.40;0.73;;;;;;;7.31;64.06;97929.38;1743877;81;21099;-69
2022/04/08 01:45:26;;;;;;;4.80;1.00;;;;;;;7.28;63.92;97934.78;1744430;82;20989;-69
2022/04/08 01:47:53;;;;;;;5.63;0.93;;;;;;;7.30;63.70;97938.97;1738467;81;21556;-69
2022/04/08 01:50:22;;;;;;;4.33;0.80;;;;;;;7.34;63.76;97939.16;1732349;81;21041;-69
2022/04/08 01:52:50;;;;;;;3.63;0.73;;;;;;;7.35;63.64;97940.83;1742231;81;21023;-69
2022/04/08 01:55:18;;;;;;;3.00;1.07;;;;;;;7.37;63.69;97953.30;1750793;81;21146;-69
2022/04/08 01:57:45;;;;;;;2.53;0.90;;;;;;;7.41;63.88;97941.38;1740784;81;21013;-69
2022/04/08 02:00:13;;;;;;;3.23;0.77;;;;;;;7.45;63.52;97938.92;1741550;82;21163;-69
2022/04/08 02:02:40;;;;;;;4.10;0.87;;;;;;;7.48;63.64;97944.80;1748826;81;20993;-70
2022/04/08 02:05:09;;;;;;;5.67;1.00;;;;;;;7.51;63.42;97940.70;1741881;81;21060;-69
2022/04/08 02:07:36;;;;;;;3.07;0.90;;;;;;;7.55;63.04;97932.20;1741035;81;21129;-70
2022/04/08 02:10:06;;;;;;;2.90;0.93;;;;;;;7.57;62.92;97942.91;1747774;81;21509;-69
2022/04/08 02:12:33;;;;;;;3.60;0.80;;;;;;;7.58;63.00;97964.59;1747189;81;21051;-69
2022/04/08 02:15:00;;;;;;;6.80;0.90;;;;;;;7.58;63.08;97942.43;1745180;80;20989;-69
2022/04/08 02:17:28;;;;;;;4.27;1.10;;;;;;;7.56;62.90;97956.85;1756189;80;21003;-70
2022/04/08 02:19:56;;;;;;;6.07;0.80;;;;;;;7.58;62.58;97956.77;1748924;81;21148;-70
2022/04/08 02:22:25;;;;;;;3.87;1.00;;;;;;;7.58;62.85;97952.39;1744313;81;21009;-70
2022/04/08 02:24:52;;;;;;;3.40;0.80;;;;;;;7.59;62.77;97984.50;1749204;80;21438;-69
2022/04/08 02:27:22;;;;;;;6.30;0.87;;;;;;;7.59;62.85;97951.91;1741988;81;20997;-73
2022/04/08 02:29:49;;;;;;;4.25;1.30;;;;;;;7.60;62.59;97987.02;1740925;81;21489;-69
2022/04/08 02:32:16;;;;;;;2.67;0.67;;;;;;;7.63;62.65;97989.91;1742714;81;21135;-69
2022/04/08 02:34:44;;;;;;;3.57;0.90;;;;;;;7.64;62.70;97968.58;1742552;81;21084;-69
2022/04/08 02:37:11;;;;;;;3.23;0.80;;;;;;;7.64;62.53;97980.30;1745547;81;21067;-69
2022/04/08 02:39:39;;;;;;;2.63;0.60;;;;;;;7.63;62.22;97987.30;1739362;80;21016;-69
2022/04/08 02:42:07;;;;;;;3.67;0.87;;;;;;;7.63;62.35;98004.24;1743195;80;20986;-69
2022/04/08 02:44:34;;;;;;;4.80;0.80;;;;;;;7.60;62.47;97980.50;1742379;81;21136;-69
2022/04/08 02:47:01;;;;;;;3.03;0.87;;;;;;;7.56;62.67;98018.11;1748368;81;20989;-70
2022/04/08 02:49:28;;;;;;;5.97;0.90;;;;;;;7.52;62.74;98010.60;1745151;80;20961;-70
2022/04/08 02:51:56;;;;;;;5.80;1.00;;;;;;;7.46;62.95;98010.99;1742658;81;21028;-70
2022/04/08 02:54:23;;;;;;;4.80;0.90;;;;;;;7.44;63.13;98028.48;1749645;80;21028;-69
2022/04/08 02:56:50;;;;;;;5.63;0.90;;;;;;;7.41;63.24;98006.53;1745546;81;21346;-69
2022/04/08 02:59:17;;;;;;;4.17;1.37;;;;;;;7.37;63.39;98024.09;1749110;81;21017;-69
2022/04/08 03:01:45;;;;;;;3.23;0.80;;;;;;;7.33;63.51;98027.84;1737275;81;21028;-69
2022/04/08 03:04:13;;;;;;;4.27;0.90;;;;;;;7.32;63.66;98020.50;1745697;80;21017;-69
2022/04/08 03:06:40;;;;;;;5.10;0.80;;;;;;;7.31;63.60;98016.20;1742291;81;21040;-69
2022/04/08 03:09:07;;;;;;;4.83;0.80;;;;;;;7.33;63.56;98013.04;1744765;80;21301;-69
2022/04/08 03:11:35;;;;;;;3.73;0.63;;;;;;;7.33;63.54;98008.30;1735968;81;21509;-69
2022/04/08 03:14:03;;;;;;;7.00;1.10;;;;;;;7.35;63.28;98025.98;1739093;81;20986;-69
2022/04/08 03:16:30;;;;;;;5.20;0.90;;;;;;;7.36;63.26;98048.03;1748712;81;21036;-69
2022/04/08 03:18:58;;;;;;;4.20;1.07;;;;;;;7.38;63.01;98034.92;1749861;81;21027;-69
2022/04/08 03:21:27;;;;;;;5.30;0.90;;;;;;;7.42;62.83;98022.52;1737531;80;21603;-69
2022/04/08 03:23:55;;;;;;;3.90;0.63;;;;;;;7.45;62.84;98027.55;1742870;81;21017;-69
2022/04/08 03:26:22;;;;;;;3.60;0.73;;;;;;;7.48;62.56;98019.09;1743536;81;20993;-69
2022/04/08 03:28:49;;;;;;;4.93;1.03;;;;;;;7.49;62.42;98038.16;1748083;81;21047;-69
2022/04/08 03:31:17;;;;;;;2.97;0.70;;;;;;;7.55;62.10;98052.95;1759541;80;21013;-69
2022/04/08 03:33:44;;;;;;;3.43;0.70;;;;;;;7.56;61.95;98048.56;1752152;80;21155;-70
2022/04/08 03:36:11;;;;;;;7.30;1.00;;;;;;;7.54;61.59;98035.64;1737033;81;21574;-69
2022/04/08 03:38:38;;;;;;;2.80;0.70;;;;;;;7.57;61.51;98067.20;1739608;81;21052;-69
2022/04/08 03:41:05;;;;;;;2.97;0.70;;;;;;;7.56;61.24;98061.59;1738552;81;21495;-69
2022/04/08 03:43:34;;;;;;;4.63;0.50;;;;;;;7.56;61.47;98064.20;1738796;80;21017;-69
2022/04/08 03:46:01;;;;;;;5.43;0.70;;;;;;;7.54;61.11;98072.61;1743265;81;22118;-70
2022/04/08 03:48:29;;;;;;;6.43;1.00;;;;;;;7.55;61.27;98080.79;1736544;81;21423;-69
2022/04/08 03:50:56;;;;;;;3.77;0.83;;;;;;;7.53;61.29;98092.59;1739641;81;21016;-70
2022/04/08 03:53:23;;;;;;;3.60;0.70;;;;;;;7.51;61.46;98094.92;1744289;81;21094;-69
2022/04/08 03:55:50;;;;;;;4.27;0.90;;;;;;;7.45;61.43;98100.05;1739178;81;21523;-69
2022/04/08 03:58:17;;;;;;;5.27;0.80;;;;;;;7.43;61.66;98115.41;1741487;81;21768;-69
2022/04/08 04:00:46;;;;;;;3.10;0.70;;;;;;;7.41;62.03;98129.84;1738234;81;21037;-70
2022/04/08 04:03:13;;;;;;;5.00;0.80;;;;;;;7.33;62.36;98117.27;1740184;81;21530;-70
2022/04/08 04:05:43;;;;;;;4.53;0.80;;;;;;;7.25;62.61;98133.83;1740105;81;21509;-70
2022/04/08 04:08:15;;;;;;;4.57;0.93;;;;;;;7.18;63.06;98140.36;1745105;81;21193;-70
2022/04/08 04:10:39;;;;;;;4.73;0.90;;;;;;;7.14;63.58;98150.56;1752028;80;21120;-70
2022/04/08 04:13:06;;;;;;;2.90;0.70;;;;;;;6.86;64.03;98147.44;1749534;81;21080;-69
2022/04/08 04:15:33;;;;;;;5.17;0.90;;;;;;;6.69;64.34;98153.15;1751226;80;21016;-70
2022/04/08 04:18:01;;;;;;;3.03;0.80;;;;;;;6.63;64.58;98160.01;1756506;80;21036;-77
2022/04/08 04:20:28;;;;;;;2.57;0.67;;;;;;;6.59;64.90;98168.91;1757597;81;21459;-69
2022/04/08 04:22:55;;;;;;;3.40;0.67;;;;;;;6.55;64.97;98163.51;1755010;80;21123;-69
2022/04/08 04:25:25;;;;;;;6.43;0.83;;;;;;;6.51;65.32;98168.96;1755858;80;21013;-70
2022/04/08 04:27:53;;;;;;;5.08;0.93;;;;;;;6.47;65.31;98173.04;1751871;80;21065;-69
2022/04/08 04:30:19;;;;;;;4.13;0.80;;;;;;;6.46;65.46;98177.88;1751032;81;21041;-69
2022/04/08 04:32:47;;;;;;;3.13;0.70;;;;;;;6.44;65.67;98177.12;1753734;81;21490;-69
2022/04/08 04:35:14;;;;;;;2.70;0.70;;;;;;;6.46;65.95;98178.34;1748623;80;21103;-69
2022/04/08 04:37:42;;;;;;;2.33;0.60;;;;;;;6.46;65.99;98182.25;1754121;81;21566;-70
2022/04/08 04:40:11;;;;;;;2.80;0.93;;;;;;;6.44;65.98;98193.20;1756094;80;21012;-70
2022/04/08 04:42:38;;;;;;;2.80;0.60;;;;;;;6.44;65.99;98196.63;1753291;80;21550;-69
2022/04/08 04:45:09;;;;;;;4.07;0.90;;;;;;;6.46;66.14;98198.70;1760852;81;21465;-70
2022/04/08 04:47:38;;;;;;;1.97;0.97;;;;;;;6.48;66.14;98212.47;1755639;81;21916;-70
2022/04/08 04:50:06;;;;;;;6.63;2.17;;;;;;;6.51;66.07;98211.44;1745778;80;21060;-70
2022/04/08 04:52:33;;;;;;;2.50;0.73;;;;;;;6.54;66.11;98216.50;1746442;81;20923;-70
2022/04/08 04:55:00;;;;;;;5.70;2.40;;;;;;;6.59;66.07;98220.95;1753936;80;20998;-79
2022/04/08 04:57:27;;;;;;;4.53;2.17;;;;;;;6.61;66.17;98217.81;1760326;81;21033;-70
2022/04/08 04:59:55;;;;;;;4.77;1.30;;;;;;;6.64;66.22;98230.66;1758508;81;21078;-70
2022/04/08 05:02:23;;;;;;;2.80;0.90;;;;;;;6.65;66.25;98250.58;1756401;80;21000;-70
2022/04/08 05:04:50;;;;;;;1.47;0.63;;;;;;;6.67;66.26;98241.36;1751362;81;21044;-70
2022/04/08 05:07:17;;;;;;;1.10;0.60;;;;;;;6.75;66.29;98251.36;1762233;80;20944;-70
2022/04/08 05:09:44;;;;;;;3.43;0.80;;;;;;;6.85;66.29;98244.72;1756438;81;21449;-70
2022/04/08 05:12:12;;;;;;;2.00;0.70;;;;;;;7.00;66.28;98252.12;1751729;80;21106;-70
2022/04/08 05:14:40;;;;;;;3.10;0.63;;;;;;;7.16;66.24;98264.65;1741025;81;21001;-71
2022/04/08 05:17:07;;;;;;;2.83;0.87;;;;;;;7.23;66.41;98275.08;1759407;80;21476;-71
2022/04/08 05:19:34;;;;;;;3.37;0.97;;;;;;;7.18;66.55;98282.34;1756253;81;21251;-71
2022/04/08 05:22:02;;;;;;;2.07;0.70;;;;;;;7.04;66.77;98270.54;1748655;81;21075;-72
2022/04/08 05:24:29;;;;;;;4.73;0.70;;;;;;;6.93;66.84;98276.38;1755828;81;21126;-71
2022/04/08 05:26:56;;;;;;;1.30;0.70;;;;;;;6.80;66.89;98276.21;1758520;81;21028;-70
2022/04/08 05:29:24;;;;;;;3.40;0.80;;;;;;;6.74;67.02;98273.13;1747546;81;21005;-70
2022/04/08 05:31:51;;;;;;;1.43;0.50;;;;;;;6.70;67.30;98290.66;1754222;81;21581;-70
2022/04/08 05:34:19;;;;;;;4.07;0.70;;;;;;;6.75;67.46;98294.31;1759205;81;21013;-70
2022/04/08 05:36:46;;;;;;;3.63;1.23;;;;;;;6.81;67.61;98286.99;1753673;80;21130;-71
2022/04/08 05:39:13;;;;;;;2.73;0.60;;;;;;;6.87;67.61;98282.77;1754739;80;21000;-71
2022/04/08 05:41:40;;;;;;;1.90;0.93;;;;;;;6.95;67.52;98297.11;1750738;81;20990;-70
2022/04/08 05:44:07;;;;;;;4.13;0.80;;;;;;;7.02;67.49;98301.06;1751760;81;21010;-70
2022/04/08 05:46:35;;;;;;;2.43;0.60;;;;;;;7.12;67.47;98322.61;1748402;80;21021;-70
2022/04/08 05:49:02;;;;;;;2.00;0.53;;;;;;;7.23;67.28;98305.05;1755356;80;21119;-70
2022/04/08 05:51:29;;;;;;;2.20;0.67;;;;;;;7.38;67.11;98308.09;1761106;80;21557;-70
2022/04/08 05:53:56;;;;;;;2.10;0.50;;;;;;;7.51;67.00;98342.13;1761656;80;20984;-70
2022/04/08 05:56:24;;;;;;;3.17;0.80;;;;;;;7.60;66.60;98310.77;1753981;81;21009;-70
2022/04/08 05:58:51;;;;;;;3.37;0.70;;;;;;;7.68;66.30;98325.97;1761581;81;21495;-70
2022/04/08 06:01:18;;;;;;;2.10;0.70;;;;;;;7.76;66.14;98318.51;1764714;80;22065;-70
2022/04/08 06:03:45;;;;;;;2.00;0.67;;;;;;;7.88;65.95;98346.50;1752774;80;21091;-70
2022/04/08 06:06:12;;;;;;;2.00;0.80;;;;;;;7.98;65.73;98337.64;1757766;81;20986;-70
2022/04/08 06:08:39;;;;;;;2.07;0.90;;;;;;;8.03;65.52;98354.70;1749502;80;21032;-70
2022/04/08 06:11:06;;;;;;;1.57;0.80;;;;;;;8.03;65.24;98360.39;1755118;81;21472;-70
2022/04/08 06:13:33;;;;;;;3.03;0.80;;;;;;;7.94;65.09;98359.17;1752261;80;21804;-70
2022/04/08 06:16:00;;;;;;;3.47;1.03;;;;;;;7.85;65.09;98357.11;1759560;81;20970;-70
2022/04/08 06:18:27;;;;;;;1.83;0.80;;;;;;;7.81;65.18;98364.72;1752634;81;21514;-70
2022/04/08 06:20:54;;;;;;;3.60;0.70;;;;;;;7.80;65.28;98390.44;1756699;81;21005;-70
2022/04/08 06:23:22;;;;;;;2.87;0.80;;;;;;;7.79;65.17;98416.16;1757506;80;22861;-70
2022/04/08 06:25:49;;;;;;;3.37;0.97;;;;;;;7.76;65.34;98381.09;1765713;80;21123;-71
2022/04/08 06:28:17;;;;;;;2.40;1.03;;;;;;;7.70;65.43;98392.72;1749009;81;21087;-71
2022/04/08 06:30:44;;;;;;;3.17;1.00;;;;;;;7.65;65.77;98399.13;1753743;80;21029;-71
2022/04/08 06:33:12;;;;;;;4.33;1.00;;;;;;;7.55;65.84;98402.27;1752715;81;21459;-72
2022/04/08 06:35:39;;;;;;;12.53;4.80;;;;;;;7.47;66.11;98411.45;1758116;81;21469;-71
2022/04/08 06:38:08;;;;;;;5.30;1.40;;;;;;;7.35;66.35;98411.21;1758520;81;21232;-71
2022/04/08 06:40:38;;;;;;;4.10;1.50;;;;;;;7.27;66.52;98416.01;1756769;81;21116;-71
2022/04/08 06:43:09;;;;;;;3.40;1.00;;;;;;;7.19;66.94;98416.89;1752921;81;21583;-71
2022/04/08 06:45:37;;;;;;;3.10;0.90;;;;;;;7.11;67.22;98417.30;1763135;80;21557;-70
2022/04/08 06:48:05;;;;;;;1.63;0.80;;;;;;;7.04;67.42;98408.16;1753335;81;20997;-72
2022/04/08 06:50:33;;;;;;;3.40;1.47;;;;;;;6.99;67.64;98408.86;1755444;80;21895;-70
2022/04/08 06:53:00;;;;;;;2.70;1.33;;;;;;;6.99;67.96;98421.05;1751116;80;21134;-70
2022/04/08 06:55:32;;;;;;;3.93;0.90;;;;;;;7.06;67.97;98417.17;1761835;81;20982;-70
2022/04/08 06:58:02;;;;;;;1.20;0.80;;;;;;;7.14;68.03;98422.34;1754043;81;21021;-71
2022/04/08 07:00:30;;;;;;;;;;;;;;;7.23;68.07;98428.81;1757172;80;21542;-70
2022/04/08 07:02:58;;;;;;;2.03;0.90;;;;;;;7.27;68.05;98434.72;1753572;81;21797;-70
2022/04/08 07:05:26;;;;;;;2.20;0.73;;;;;;;7.28;67.99;98447.64;1754473;81;20939;-70
2022/04/08 07:07:53;;;;;;;2.57;1.00;;;;;;;7.29;67.87;98437.62;1755064;81;21061;-69
2022/04/08 07:10:20;;;;;;;1.83;0.90;;;;;;;7.30;67.70;98460.13;1742785;80;21644;-70
2022/04/08 07:12:47;;;;;;;2.70;0.70;;;;;;;7.31;67.69;98456.59;1755128;81;21029;-69
2022/04/08 07:15:15;;;;;;;2.57;0.67;;;;;;;7.35;67.43;98479.44;1749165;80;21138;-70
2022/04/08 07:17:42;;;;;;;2.97;1.23;;;;;;;7.37;67.29;98471.92;1755066;81;20978;-70
2022/04/08 07:20:14;;;;;;;6.03;1.90;;;;;;;7.39;67.16;98486.16;1761607;80;21049;-69
2022/04/08 07:22:41;;;;;;;4.73;1.60;;;;;;;7.41;66.98;98487.39;1754568;80;21072;-71
2022/04/08 07:25:09;;;;;;;4.07;2.20;;;;;;;7.41;66.92;98492.13;1754542;80;20997;-70
2022/04/08 07:27:49;;;;;;;3.43;1.40;;;;;;;7.42;66.94;98502.09;1750387;80;21077;-72
2022/04/08 07:30:19;;;;;;;5.58;2.70;;;;;;;7.41;67.10;98503.03;1753448;81;26806;-71
2022/04/08 07:32:48;;;;;;;3.77;1.90;;;;;;;7.37;67.25;98503.20;1756007;80;21017;-71
2022/04/08 07:35:15;;;;;;;3.90;1.90;;;;;;;7.37;67.47;98503.63;1746518;81;21065;-71
2022/04/08 07:37:42;;;;;;;2.60;1.50;;;;;;;7.34;67.48;98521.61;1758634;80;20988;-71
2022/04/08 07:40:13;;;;;;;4.67;1.40;;;;;;;7.30;67.54;98516.63;1752576;80;21432;-72
2022/04/08 07:42:40;;;;;;;3.60;1.77;;;;;;;7.29;67.81;98527.99;1758054;80;22047;-71
2022/04/08 07:45:09;;;;;;;4.07;1.70;;;;;;;7.27;68.04;98538.95;1746295;81;21001;-73
2022/04/08 07:47:36;;;;;;;4.37;2.10;;;;;;;7.21;68.10;98549.23;1752259;81;21462;-71
2022/04/08 07:50:10;;;;;;;5.17;2.40;;;;;;;7.14;68.43;98542.66;1750842;81;21320;-72
2022/04/08 07:52:39;;;;;;;5.93;2.40;;;;;;;7.11;68.54;98559.75;1720503;82;21568;-72
2022/04/08 07:55:09;;;;;;;3.47;1.30;;;;;;;7.14;68.84;98561.73;1740942;81;21004;-71
2022/04/08 07:57:51;;;;;;;2.90;1.50;;;;;;;7.24;68.79;98563.41;1745664;81;21028;-72
2022/04/08 08:00:21;;;;;;;1.70;1.07;;;;;;;7.30;68.82;98559.63;1737714;81;21479;-72
2022/04/08 08:02:49;;;;;;;;;;;;;;;7.36;68.76;98569.26;1745664;81;21470;-71
2022/04/08 08:05:17;;;;;;;1.67;0.73;;;;;;;7.43;68.45;98566.31;1741383;81;21356;-71
2022/04/08 08:07:50;;;;;;;0.80;0.40;;;;;;;7.54;68.43;98582.25;1742594;81;21091;-71
2022/04/08 08:10:23;;;;;;;0.40;0.30;;;;;;;7.60;67.82;98582.75;1750554;81;21481;-71
2022/04/08 08:12:52;;;;;;;1.17;0.30;;;;;;;7.62;67.86;98594.42;1731967;81;21002;-72
2022/04/08 08:15:21;;;;;;;1.27;0.20;;;;;;;7.67;67.86;98573.29;1730678;81;21460;-75
2022/04/08 08:17:49;;;;;;;0.40;0.20;;;;;;;7.68;68.06;98596.69;1750197;81;21116;-74
2022/04/08 08:20:18;;;;;;;1.23;0.40;;;;;;;7.78;68.40;98623.09;1736752;82;21462;-72
2022/04/08 08:22:46;;;;;;;1.13;0.40;;;;;;;7.75;68.09;98646.73;1732984;82;21511;-78
2022/04/08 08:25:14;;;;;;;0.40;0.30;;;;;;;7.58;67.95;98644.56;1731449;81;21036;-72
2022/04/08 08:27:45;;;;;;;0.40;0.30;;;;;;;7.45;68.11;98635.70;1732136;82;21016;-71
2022/04/08 08:30:16;;;;;;;1.37;0.40;;;;;;;7.35;68.07;98647.55;1725314;82;21112;-71
2022/04/08 08:32:46;;;;;;;1.53;0.50;;;;;;;7.27;68.40;98646.63;1730333;82;20985;-71
2022/04/08 08:35:16;;;;;;;;;;;;;;;7.23;68.27;98660.72;1710482;82;21027;-72
2022/04/08 08:37:44;;;;;;;0.60;0.50;;;;;;;7.31;68.54;98670.77;1737296;82;20391;-72
2022/04/08 08:40:15;;;;;;;0.93;0.50;;;;;;;7.44;68.88;98665.30;1739223;82;21032;-71
2022/04/08 08:42:45;;;;;;;;;;;;;;;7.56;68.65;98673.77;1727468;82;21179;-72
2022/04/08 08:45:14;;;;;;;1.32;0.30;;;;;;;7.72;69.16;98658.64;1750965;80;20430;-71
2022/04/08 08:47:47;;;;;;;0.93;0.55;;;;;;;7.93;69.09;98670.55;1733821;81;21012;-77
2022/04/08 08:50:17;;;;;;;2.50;0.50;;;;;;;8.18;69.51;98660.91;1739728;81;21009;-72
2022/04/08 08:52:48;;;;;;;0.75;0.30;;;;;;;8.41;68.70;98664.88;1741373;81;21068;-80
2022/04/08 08:55:15;;;;;;;0.97;0.50;;;;;;;8.51;68.74;98674.80;1738774;81;21141;-79
2022/04/08 08:57:45;;;;;;;1.50;0.40;;;;;;;8.54;68.00;98674.19;1725934;80;20981;-73
2022/04/08 09:00:13;;;;;;;1.13;0.37;;;;;;;8.59;68.03;98681.74;1725021;82;20988;-72
2022/04/08 09:02:42;;;;;;;1.17;0.40;;;;;;;8.80;68.27;98696.67;1734271;80;21533;-72
2022/04/08 09:05:13;;;;;;;1.77;0.50;;;;;;;9.04;67.66;98693.97;1758443;80;20981;-76
2022/04/08 09:07:40;;;;;;;0.90;0.33;;;;;;;9.07;67.02;98694.26;1737945;81;27569;-72
2022/04/08 09:10:08;;;;;;;0.20;0.20;;;;;;;8.96;67.20;98709.25;1713235;81;21502;-73
2022/04/08 09:12:35;;;;;;;0.67;0.30;;;;;;;8.84;66.95;98716.02;1723971;82;21080;-73
2022/04/08 09:15:03;;;;;;;0.40;0.20;;;;;;;8.70;67.16;98718.55;1714120;82;21252;-79
2022/04/08 09:17:30;;;;;;;0.50;0.20;;;;;;;8.66;67.32;98723.11;1689655;83;21026;-73
2022/04/08 09:19:59;;;;;;;1.47;0.37;;;;;;;8.59;66.91;98717.87;1687516;83;21104;-72
2022/04/08 09:22:36;;;;;;;1.07;0.30;;;;;;;8.56;66.83;98717.17;1731686;81;21001;-72
2022/04/08 09:25:10;;;;;;;0.47;0.40;;;;;;;8.65;66.88;98709.69;1731102;82;21521;-72
2022/04/08 09:27:41;;;;;;;0.43;0.40;;;;;;;8.77;66.86;98713.37;1707930;82;21012;-75
2022/04/08 09:30:10;;;;;;;1.00;0.50;;;;;;;8.82;66.52;98717.88;1727030;82;21466;-72
2022/04/08 09:32:37;;;;;;;0.60;0.30;;;;;;;8.86;66.52;98737.66;1715774;82;21763;-75
2022/04/08 09:35:06;;;;;;;1.17;0.30;;;;;;;8.89;66.03;98715.73;1725660;80;21063;-75
2022/04/08 09:37:33;;;;;;;0.87;0.30;;;;;;;8.86;66.08;98732.43;1758658;81;21020;-74
2022/04/08 09:40:04;;;;;;;0.90;0.40;;;;;;;8.86;64.92;98731.59;1720453;81;21032;-72
2022/04/08 09:42:45;;;;;;;0.90;0.37;;;;;;;8.84;65.30;98721.25;1727152;81;21076;-72
2022/04/08 09:45:14;;;;;;;2.27;0.83;;;;;;;8.80;65.31;98718.41;1736648;81;21203;-74
2022/04/08 09:47:41;;;;;;;0.67;0.50;;;;;;;8.73;65.18;98732.77;1763273;80;21502;-73
2022/04/08 09:50:10;;;;;;;0.67;0.50;;;;;;;8.63;65.34;98738.95;1763477;80;21029;-74
2022/04/08 09:52:40;;;;;;;1.03;0.50;;;;;;;8.61;65.57;98729.52;1731106;81;21013;-74
2022/04/08 09:55:09;;;;;;;0.72;0.45;;;;;;;8.61;65.34;98732.97;1722324;82;21013;-74
2022/04/08 09:57:40;;;;;;;0.97;0.70;;;;;;;8.60;65.38;98761.80;1728565;82;21919;-73
2022/04/08 10:00:09;;;;;;;0.40;0.40;;;;;;;8.56;65.01;98727.15;1716720;82;21059;-75
2022/04/08 10:02:43;;;;;;;1.27;0.57;;;;;;;8.54;65.37;98755.61;1722520;82;21052;-73
2022/04/08 10:05:11;;;;;;;1.07;0.60;;;;;;;8.63;65.18;98736.34;1716106;82;21002;-73
2022/04/08 10:07:41;;;;;;;1.77;0.63;;;;;;;8.83;65.67;98728.69;1724510;82;21027;-75
2022/04/08 10:10:37;;;;;;;1.23;0.40;;;;;;;9.05;65.20;98724.39;1716734;80;21489;-73
2022/04/08 10:13:30;;;;;;;1.30;0.57;;;;;;;9.28;64.38;98729.58;1741261;81;21554;-73
2022/04/08 10:16:21;;;;;;;1.27;0.70;;;;;;;9.53;63.95;98717.67;1724655;82;21077;-74
2022/04/08 10:18:50;;;;;;;1.23;0.60;;;;;;;9.83;63.64;98728.08;1712743;82;21058;-74
2022/04/08 10:21:17;;;;;;;1.70;0.65;;;;;;;10.02;63.01;98720.78;1731264;82;21034;-73
2022/04/08 10:23:55;;;;;;;1.47;0.80;;;;;;;10.15;62.32;98765.86;1722485;82;21133;-77
2022/04/08 10:26:26;;;;;;;1.52;0.70;;;;;;;10.29;61.50;98729.22;1722257;82;21487;-76
2022/04/08 10:28:55;;;;;;;0.77;0.67;;;;;;;10.52;62.09;98721.69;1717870;82;21022;-73
2022/04/08 10:31:27;;;;;;;2.87;0.60;;;;;;;10.61;60.73;98735.50;1746454;80;21497;-74
2022/04/08 10:33:58;;;;;;;1.90;0.70;;;;;;;10.47;60.21;98738.55;1726228;80;21027;-73
2022/04/08 10:36:38;;;;;;;;;;;;;;;10.53;60.06;98723.36;1737685;82;21060;-73
2022/04/08 10:39:15;;;;;;;2.52;0.60;;;;;;;10.82;60.76;98715.78;1732118;82;20131;-73
2022/04/08 10:41:51;;;;;;;1.25;0.50;;;;;;;11.23;60.66;98726.66;1725675;81;21014;-73
2022/04/08 10:44:39;;;;;;;1.60;0.50;;;;;;;11.60;60.42;98731.56;1736233;81;21063;-74
2022/04/08 10:47:19;;;;;;;1.10;0.60;;;;;;;11.83;58.92;98739.20;1744672;81;22145;-74
2022/04/08 10:50:02;;;;;;;1.57;0.70;;;;;;;11.58;56.98;98787.27;1749528;81;22001;-75
2022/04/08 10:52:33;;;;;;;2.50;0.50;;;;;;;11.35;55.79;98738.94;1744263;80;20964;-74
2022/04/08 10:55:10;;;;;;;3.37;0.62;;;;;;;11.26;56.49;98730.86;1731533;81;21432;-74
2022/04/08 10:57:40;;;;;;;1.95;0.50;;;;;;;11.48;57.18;98725.02;1731662;81;21517;-74
2022/04/08 11:00:20;;;;;;;4.03;0.68;;;;;;;11.56;56.45;98725.34;1732905;81;21047;-74
2022/04/08 11:02:47;;;;;;;1.07;0.65;;;;;;;11.78;56.84;98712.42;1737914;81;21551;-75
2022/04/08 11:05:16;;;;;;;1.52;0.70;;;;;;;11.84;56.38;98712.00;1766154;80;21008;-74
2022/04/08 11:07:53;;;;;;;1.17;0.53;;;;;;;11.74;55.89;98722.75;1760912;80;21019;-74
2022/04/08 11:10:22;;;;;;;2.22;0.50;;;;;;;11.77;55.02;98746.16;1721677;80;21497;-75
2022/04/08 11:12:52;;;;;;;1.47;0.40;;;;;;;11.54;53.97;98749.52;1713221;82;21019;-74
2022/04/08 11:15:23;;;;;;;0.80;0.53;;;;;;;11.18;54.01;98743.64;1721756;82;21113;-75
2022/04/08 11:17:52;;;;;;;0.93;0.40;;;;;;;10.86;54.48;98774.95;1725162;82;21470;-73
2022/04/08 11:20:21;;;;;;;2.98;0.90;;;;;;;10.43;54.56;98823.48;1714398;82;21074;-74
2022/04/08 11:22:53;;;;;;;4.83;2.40;;;;;;;9.64;54.75;98835.59;1732078;82;28260;-75
2022/04/08 11:25:28;;;;;;;3.37;1.00;;;;;;;8.52;56.00;98846.23;1729370;81;21500;-76
2022/04/08 11:28:03;;;;;;;1.27;0.40;;;;;;;7.58;57.75;98851.01;1751875;80;21927;-74
2022/04/08 11:30:33;;;;;;;2.77;0.90;;;;;;;6.84;59.38;98841.97;1764706;80;20966;-74
2022/04/08 11:33:17;;;;;;;3.80;0.68;;;;;;;6.20;60.77;98850.47;1749220;80;21011;-75
2022/04/08 11:35:47;;;;;;;1.07;0.50;;;;;;;5.78;62.01;98844.88;1739308;80;21020;-75
2022/04/08 11:38:15;;;;;;;0.67;0.50;;;;;;;5.51;63.04;98829.98;1729892;80;21105;-74
2022/04/08 11:40:43;;;;;;;2.13;0.67;;;;;;;5.30;64.14;98830.42;1729494;82;21247;-75
2022/04/08 11:43:16;;;;;;;1.77;0.67;;;;;;;5.14;65.34;98822.40;1729632;82;21033;-75
2022/04/08 11:45:45;;;;;;;1.17;0.40;;;;;;;5.08;66.61;98828.30;1738244;81;21478;-75
2022/04/08 11:48:20;;;;;;;1.77;0.90;;;;;;;5.07;66.93;98800.20;1740232;80;21000;-73
2022/04/08 11:50:44;;;;;;;1.97;0.80;;;;;;;5.14;67.81;98789.09;1729240;80;21020;-74